Time;durP1;ratioP1;P1;durP2;ratioP2;P2;SDS_P1;SDS_P2;PMS_P1;PMS_P2;Temp;Humidity;BMP_temperature;BMP_pressure;BME280_temperature;BME280_humidity;BME280_pressure;Samples;Min_cycle;Max_cycle;Signal;HPM_P1;HPM_P2
2021/10/15 00:00:37;;;;;;;18.73;5.88;;;;;;;17.59;66.11;100449.22;4878390;28;119405;-85
2021/10/15 00:03:03;;;;;;;19.92;5.70;;;;;;;17.66;66.24;100459.81;4840927;28;122270;-85
2021/10/15 00:05:30;;;;;;;24.67;7.05;;;;;;;17.73;66.22;100459.31;4871244;28;119728;-85
2021/10/15 00:07:56;;;;;;;21.15;7.13;;;;;;;17.73;66.37;100471.19;4876572;28;122146;-85
2021/10/15 00:10:22;;;;;;;26.45;6.70;;;;;;;17.71;66.63;100468.16;4872690;28;119541;-85
2021/10/15 00:12:48;;;;;;;26.13;6.72;;;;;;;17.79;66.99;100466.41;4875052;28;119543;-85
2021/10/15 00:15:14;;;;;;;19.95;6.63;;;;;;;17.76;66.89;100450.78;4842450;28;122424;-85
2021/10/15 00:17:39;;;;;;;19.85;6.95;;;;;;;17.66;67.05;100441.16;4856619;28;119420;-85
2021/10/15 00:20:06;;;;;;;18.77;6.65;;;;;;;17.73;67.22;100442.69;4857930;28;120841;-86
2021/10/15 00:22:33;;;;;;;16.85;6.47;;;;;;;17.65;67.60;100409.13;4875864;28;120005;-85
2021/10/15 00:24:59;;;;;;;23.17;6.75;;;;;;;17.67;67.33;100423.28;4873369;28;119925;-85
2021/10/15 00:27:24;;;;;;;21.48;6.32;;;;;;;17.56;67.21;100409.41;4836562;28;121759;-85
2021/10/15 00:29:50;;;;;;;21.15;5.95;;;;;;;17.52;67.59;100397.81;4877095;28;120141;-85
2021/10/15 00:32:16;;;;;;;20.45;5.90;;;;;;;17.56;67.49;100403.84;4874131;28;119472;-86
2021/10/15 00:34:43;;;;;;;17.33;5.65;;;;;;;17.63;67.58;100411.66;4873442;28;119640;-85
2021/10/15 00:37:09;;;;;;;21.83;6.03;;;;;;;17.64;67.81;100404.84;4872718;28;120025;-86
2021/10/15 00:39:36;;;;;;;25.17;6.80;;;;;;;17.62;67.72;100395.53;4872618;28;119815;-86
2021/10/15 00:42:02;;;;;;;21.75;5.50;;;;;;;17.66;67.70;100396.78;4853640;28;121800;-85
2021/10/15 00:44:28;;;;;;;20.92;5.38;;;;;;;17.64;67.53;100385.44;4844269;28;119785;-85
2021/10/15 00:46:53;;;;;;;17.85;5.22;;;;;;;17.46;67.61;100364.53;4870929;28;120092;-88
2021/10/15 00:49:19;;;;;;;19.95;5.90;;;;;;;17.67;67.82;100381.66;4871621;28;119541;-88
2021/10/15 00:51:46;;;;;;;22.00;6.15;;;;;;;17.63;68.29;100374.84;4859271;28;119381;-88
2021/10/15 00:54:13;;;;;;;18.67;5.75;;;;;;;17.68;68.07;100379.66;4853914;28;121932;-87
2021/10/15 00:56:42;;;;;;;17.33;5.35;;;;;;;17.70;68.17;100364.00;4836684;28;120037;-86
2021/10/15 00:59:08;;;;;;;18.08;4.88;;;;;;;17.59;68.21;100346.63;4864385;28;123092;-87
2021/10/15 01:01:34;;;;;;;20.88;5.43;;;;;;;17.70;68.05;100361.22;4869295;28;123083;-86
2021/10/15 01:04:01;;;;;;;18.85;5.28;;;;;;;17.73;67.95;100354.66;4853438;28;119948;-87
2021/10/15 01:06:28;;;;;;;22.33;5.38;;;;;;;17.68;68.16;100338.81;4869209;28;119836;-86
2021/10/15 01:08:54;;;;;;;14.98;5.82;;;;;;;17.61;68.26;100322.66;4838754;28;121825;-87
2021/10/15 01:11:20;;;;;;;23.02;6.15;;;;;;;17.65;68.13;100331.47;4834678;28;119906;-86
2021/10/15 01:13:49;;;;;;;16.52;5.40;;;;;;;17.74;68.08;100342.34;4865166;28;119524;-85
2021/10/15 01:16:27;;;;;;;18.08;6.20;;;;;;;17.75;68.11;100340.31;4823504;28;119776;-86
2021/10/15 01:18:56;;;;;;;21.17;5.70;;;;;;;17.65;67.95;100330.72;4870976;28;119697;-86
2021/10/15 01:21:22;;;;;;;18.15;5.78;;;;;;;17.41;68.13;100281.34;4869807;28;119993;-86
2021/10/15 01:23:48;;;;;;;20.58;5.75;;;;;;;17.72;68.26;100303.22;4855128;28;119947;-86
2021/10/15 01:26:14;;;;;;;22.10;5.78;;;;;;;17.67;68.65;100304.00;4834673;28;121804;-86
2021/10/15 01:28:40;;;;;;;25.67;5.75;;;;;;;17.74;68.30;100299.94;4855537;28;120451;-87
2021/10/15 01:31:06;;;;;;;23.52;6.50;;;;;;;17.75;68.18;100299.47;4853889;28;119728;-86
2021/10/15 01:33:32;;;;;;;21.98;5.95;;;;;;;17.74;68.27;100297.97;4874206;28;119749;-86
2021/10/15 01:35:59;;;;;;;23.13;5.90;;;;;;;17.68;68.29;100285.34;4856785;28;120065;-86
2021/10/15 01:38:25;;;;;;;21.40;6.43;;;;;;;17.65;68.46;100283.56;4843708;28;120820;-86
2021/10/15 01:40:51;;;;;;;21.15;4.97;;;;;;;17.64;68.43;100274.50;4870170;28;120171;-85
2021/10/15 01:43:25;;;;;;;21.50;5.43;;;;;;;17.62;68.28;100259.63;4854949;28;119928;-84
2021/10/15 01:45:51;;;;;;;31.73;6.25;;;;;;;17.77;68.31;100282.31;4855890;28;122293;-84
2021/10/15 01:48:18;;;;;;;30.08;6.07;;;;;;;17.75;68.22;100280.06;4867327;28;119931;-83
2021/10/15 01:50:44;;;;;;;18.52;5.95;;;;;;;17.65;68.56;100267.69;4870276;28;119985;-84
2021/10/15 01:53:10;;;;;;;25.65;6.20;;;;;;;17.67;68.53;100267.97;4870999;28;119597;-84
2021/10/15 01:55:36;;;;;;;23.80;6.30;;;;;;;17.69;68.23;100278.53;4860513;28;121795;-84
2021/10/15 01:58:01;;;;;;;16.13;5.32;;;;;;;17.59;68.55;100258.63;4857586;28;121163;-84
2021/10/15 02:00:28;;;;;;;19.13;6.05;;;;;;;17.64;68.87;100257.09;4875443;28;120707;-84
2021/10/15 02:02:53;;;;;;;21.77;5.97;;;;;;;17.67;69.30;100256.88;4872954;28;119942;-84
2021/10/15 02:05:21;;;;;;;21.75;5.68;;;;;;;17.69;69.00;100259.88;4841222;28;122577;-84
2021/10/15 02:07:47;;;;;;;20.92;5.93;;;;;;;17.62;68.69;100248.53;4841048;28;123371;-84
2021/10/15 02:10:16;;;;;;;23.50;6.15;;;;;;;17.59;68.87;100250.31;4876215;28;120007;-84
2021/10/15 02:12:42;;;;;;;22.42;6.03;;;;;;;17.53;69.10;100241.25;4856451;28;121185;-84
2021/10/15 02:15:10;;;;;;;23.45;6.22;;;;;;;17.66;69.04;100251.78;4872934;28;119700;-84
2021/10/15 02:17:36;;;;;;;15.60;5.30;;;;;;;17.61;69.30;100235.94;4877830;28;120509;-84
2021/10/15 02:20:06;;;;;;;23.20;6.05;;;;;;;17.67;69.27;100233.88;4842366;28;122665;-84
2021/10/15 02:22:32;;;;;;;26.42;6.60;;;;;;;17.71;69.09;100239.94;4875818;28;119622;-84
2021/10/15 02:24:58;;;;;;;26.92;6.22;;;;;;;17.65;69.06;100225.31;4856098;28;121737;-84
2021/10/15 02:27:24;;;;;;;21.50;6.05;;;;;;;17.60;69.34;100213.00;4874682;28;119405;-84
2021/10/15 02:29:49;;;;;;;17.55;5.70;;;;;;;17.50;69.57;100198.66;4872765;28;119954;-83
2021/10/15 02:32:15;;;;;;;26.40;5.80;;;;;;;17.63;69.38;100200.88;4873845;28;119611;-83
2021/10/15 02:34:41;;;;;;;24.30;6.05;;;;;;;17.62;69.35;100199.38;4858845;28;119971;-84
2021/10/15 02:37:07;;;;;;;22.58;5.45;;;;;;;17.66;69.57;100194.31;4873991;28;119620;-83
2021/10/15 02:39:33;;;;;;;29.23;6.35;;;;;;;17.64;69.45;100187.75;4876336;28;119742;-83
2021/10/15 02:41:59;;;;;;;25.65;5.70;;;;;;;17.69;69.58;100192.56;4842860;28;119829;-84
2021/10/15 02:44:24;;;;;;;19.98;5.18;;;;;;;17.59;69.36;100183.75;4872990;28;119773;-84
2021/10/15 02:46:50;;;;;;;17.73;4.90;;;;;;;17.67;69.44;100201.38;4862029;28;124003;-84
2021/10/15 02:49:16;;;;;;;15.23;4.28;;;;;;;17.56;69.43;100179.22;4873836;28;119919;-84
2021/10/15 02:51:41;;;;;;;15.23;3.63;;;;;;;17.67;69.39;100200.59;4856370;28;122224;-84
2021/10/15 02:54:08;;;;;;;12.55;3.88;;;;;;;17.59;69.24;100178.22;4857790;28;119526;-83
2021/10/15 02:56:33;;;;;;;11.30;3.50;;;;;;;17.67;69.31;100183.97;4877097;28;119647;-83
2021/10/15 02:58:59;;;;;;;11.27;3.00;;;;;;;17.64;69.42;100182.97;4844957;28;120923;-85
2021/10/15 03:01:25;;;;;;;13.10;3.50;;;;;;;17.69;69.54;100193.31;4845561;28;122152;-83
2021/10/15 03:03:51;;;;;;;10.18;3.35;;;;;;;17.64;69.17;100180.19;4872745;28;119783;-84
2021/10/15 03:06:17;;;;;;;13.68;3.50;;;;;;;17.60;69.24;100168.63;4873856;28;120577;-83
2021/10/15 03:08:43;;;;;;;13.05;3.15;;;;;;;17.47;69.08;100157.31;4853916;28;119812;-84
2021/10/15 03:11:08;;;;;;;14.68;3.63;;;;;;;17.64;68.93;100173.91;4855291;28;119846;-83
2021/10/15 03:13:34;;;;;;;16.05;3.08;;;;;;;17.64;69.23;100168.34;4851895;28;122295;-84
2021/10/15 03:16:00;;;;;;;15.35;3.70;;;;;;;17.59;69.35;100161.56;4873999;28;119860;-84
2021/10/15 03:18:26;;;;;;;11.13;3.45;;;;;;;17.63;69.84;100161.31;4872482;28;121167;-84
2021/10/15 03:20:52;;;;;;;13.38;3.60;;;;;;;17.55;69.79;100146.47;4856956;28;119763;-83
2021/10/15 03:23:19;;;;;;;12.45;3.35;;;;;;;17.62;69.95;100154.25;4876917;28;119441;-84
2021/10/15 03:25:45;;;;;;;16.98;3.55;;;;;;;17.59;69.57;100138.63;4856703;28;123064;-84
2021/10/15 03:28:10;;;;;;;11.35;3.28;;;;;;;17.62;69.72;100143.16;4841095;28;120225;-84
2021/10/15 03:30:36;;;;;;;15.02;3.05;;;;;;;17.47;69.63;100132.38;4868338;28;119941;-84
2021/10/15 03:33:03;;;;;;;11.38;3.22;;;;;;;17.53;69.70;100144.22;4859128;28;119823;-85
2021/10/15 03:35:29;;;;;;;10.65;3.17;;;;;;;17.63;69.91;100173.16;4874672;28;120071;-84
2021/10/15 03:37:55;;;;;;;4.05;1.40;;;;;;;17.62;68.94;100196.59;4853534;28;119752;-84
2021/10/15 03:40:21;;;;;;;5.53;1.10;;;;;;;17.44;68.22;100177.75;4872089;28;122004;-84
2021/10/15 03:42:47;;;;;;;2.92;0.80;;;;;;;17.38;67.62;100207.53;4878043;28;119156;-84
2021/10/15 03:45:13;;;;;;;6.50;0.80;;;;;;;17.26;67.83;100217.88;4873148;28;119752;-83
2021/10/15 03:47:39;;;;;;;1.95;0.90;;;;;;;16.96;67.78;100187.22;4874275;28;119642;-86
2021/10/15 03:50:07;;;;;;;3.22;0.90;;;;;;;16.96;67.08;100211.38;4871484;28;121514;-86
2021/10/15 03:52:33;;;;;;;2.63;0.90;;;;;;;16.89;67.18;100215.44;4869931;28;119523;-86
2021/10/15 03:54:59;;;;;;;2.72;0.88;;;;;;;16.65;66.92;100206.84;4853193;28;119514;-86
2021/10/15 03:57:24;;;;;;;4.45;1.15;;;;;;;16.47;66.99;100191.50;4873460;28;119992;-85
2021/10/15 03:59:50;;;;;;;5.78;1.20;;;;;;;16.45;67.21;100216.91;4854159;28;123600;-85
2021/10/15 04:02:16;;;;;;;5.28;1.13;;;;;;;16.28;67.56;100210.59;4872555;28;119754;-86
2021/10/15 04:04:42;;;;;;;4.55;1.20;;;;;;;16.21;67.36;100222.16;4855632;28;119524;-85
2021/10/15 04:07:07;;;;;;;7.00;1.67;;;;;;;16.15;67.92;100230.47;4871363;28;119391;-86
2021/10/15 04:09:33;;;;;;;7.85;1.50;;;;;;;16.02;67.90;100227.38;4871857;28;120352;-85
2021/10/15 04:11:58;;;;;;;6.18;1.50;;;;;;;16.04;68.45;100240.72;4856801;28;122136;-85
2021/10/15 04:14:25;;;;;;;5.28;1.50;;;;;;;15.98;68.51;100248.25;4872841;28;119718;-86
2021/10/15 04:16:51;;;;;;;4.80;1.08;;;;;;;15.93;68.52;100249.75;4871847;28;121190;-85
2021/10/15 04:19:17;;;;;;;4.13;1.13;;;;;;;15.68;68.09;100220.25;4854700;28;122443;-86
2021/10/15 04:21:43;;;;;;;9.20;1.65;;;;;;;15.73;67.70;100247.91;4870661;28;119520;-85
2021/10/15 04:24:10;;;;;;;6.28;1.38;;;;;;;15.66;68.02;100259.44;4851658;28;120997;-86
2021/10/15 04:26:36;;;;;;;7.07;1.13;;;;;;;15.48;68.39;100255.03;4864944;28;120704;-86
2021/10/15 04:29:01;;;;;;;7.85;1.27;;;;;;;15.39;68.43;100249.72;4855890;28;119723;-86
2021/10/15 04:31:27;;;;;;;10.27;1.67;;;;;;;15.37;68.19;100246.69;4872220;28;119697;-86
2021/10/15 04:33:53;;;;;;;10.85;1.40;;;;;;;15.34;68.09;100265.00;4869847;28;119689;-86
2021/10/15 04:36:18;;;;;;;8.52;1.38;;;;;;;15.32;67.99;100267.50;4849987;28;120854;-86
2021/10/15 04:38:44;;;;;;;12.70;1.70;;;;;;;15.27;67.97;100279.28;4836748;28;123142;-86
2021/10/15 04:41:10;;;;;;;9.82;1.80;;;;;;;15.16;68.59;100265.41;4873393;28;119476;-87
2021/10/15 04:43:35;;;;;;;13.80;1.75;;;;;;;15.10;68.21;100259.06;4856812;28;120348;-87
2021/10/15 04:46:01;;;;;;;11.48;1.58;;;;;;;15.13;68.94;100276.66;4840456;28;123636;-86
2021/10/15 04:48:27;;;;;;;9.75;1.55;;;;;;;15.01;68.85;100259.25;4859497;28;119697;-86
2021/10/15 04:50:52;;;;;;;14.30;2.17;;;;;;;14.99;68.89;100265.28;4871773;28;119503;-87
2021/10/15 04:53:19;;;;;;;9.68;1.85;;;;;;;15.10;69.03;100278.41;4854775;28;119960;-87
2021/10/15 04:55:45;;;;;;;11.55;2.05;;;;;;;15.05;69.40;100270.84;4856046;28;119683;-86
2021/10/15 04:58:10;;;;;;;16.15;1.80;;;;;;;15.05;69.28;100273.59;4856011;28;122400;-87
2021/10/15 05:00:36;;;;;;;9.57;1.58;;;;;;;14.98;69.25;100263.00;4848386;28;119931;-87
2021/10/15 05:03:02;;;;;;;13.93;2.03;;;;;;;15.15;69.49;100285.25;4848493;28;121063;-87
2021/10/15 05:05:29;;;;;;;13.88;1.90;;;;;;;15.11;69.29;100290.22;4839080;28;121761;-87
2021/10/15 05:07:56;;;;;;;14.77;2.05;;;;;;;15.15;68.96;100285.25;4871309;28;119576;-86
2021/10/15 05:10:23;;;;;;;9.00;1.67;;;;;;;15.06;69.34;100269.59;4875596;28;119826;-86
2021/10/15 05:12:50;;;;;;;10.85;2.13;;;;;;;15.17;69.25;100283.50;4857151;28;119838;-85
2021/10/15 05:15:25;;;;;;;15.05;2.13;;;;;;;15.16;69.30;100275.69;4842646;28;119855;-85
2021/10/15 05:17:51;;;;;;;13.05;2.25;;;;;;;15.12;69.38;100264.09;4848539;28;121330;-85
2021/10/15 05:20:20;;;;;;;13.57;1.83;;;;;;;15.14;69.31;100269.88;4861448;28;119469;-86
2021/10/15 05:22:46;;;;;;;13.65;1.90;;;;;;;15.17;69.44;100275.22;4861130;28;119317;-85
2021/10/15 05:25:13;;;;;;;17.17;2.25;;;;;;;15.24;69.31;100288.56;4860843;28;122004;-87
2021/10/15 05:27:39;;;;;;;13.02;2.20;;;;;;;15.08;69.50;100258.03;4845628;28;119392;-86
2021/10/15 05:30:08;;;;;;;18.50;2.33;;;;;;;15.24;69.47;100277.50;4873483;28;119856;-86
2021/10/15 05:32:35;;;;;;;18.67;2.35;;;;;;;15.11;69.19;100251.53;4867651;28;119734;-86
2021/10/15 05:35:00;;;;;;;14.38;2.25;;;;;;;15.24;69.24;100269.22;4836092;28;121373;-86
2021/10/15 05:37:26;;;;;;;15.10;2.05;;;;;;;15.07;68.85;100251.75;4851427;28;121984;-87
2021/10/15 05:39:52;;;;;;;18.02;2.00;;;;;;;15.19;68.86;100266.44;4870318;28;120063;-87
2021/10/15 05:42:18;;;;;;;15.25;1.77;;;;;;;15.12;69.21;100264.09;4870264;28;120064;-86
2021/10/15 05:44:44;;;;;;;15.60;2.40;;;;;;;15.22;68.86;100280.00;4865928;28;122946;-86
2021/10/15 05:47:10;;;;;;;15.88;2.22;;;;;;;15.14;69.36;100267.91;4848832;28;119760;-86
2021/10/15 05:49:39;;;;;;;19.92;2.10;;;;;;;14.72;68.93;100236.19;4841195;28;121308;-86
2021/10/15 05:52:08;;;;;;;16.48;2.22;;;;;;;15.17;68.75;100304.84;4872010;28;122223;-87
2021/10/15 05:54:44;;;;;;;16.77;2.08;;;;;;;15.07;68.48;100295.97;4863848;28;118667;-86
2021/10/15 05:57:18;;;;;;;16.85;2.03;;;;;;;15.13;68.61;100307.81;4841626;28;122373;-86
2021/10/15 05:59:44;;;;;;;16.65;2.05;;;;;;;15.04;68.64;100291.41;4868081;28;119710;-85
2021/10/15 06:02:10;;;;;;;12.30;2.67;;;;;;;15.08;68.97;100305.75;4856198;28;119823;-86
2021/10/15 06:15:05;;;;;;;;;;;;;;;15.03;69.49;100323.81;4876003;28;119685;-86
2021/10/15 06:17:30;;;;;;;15.70;1.88;;;;;;;14.96;68.89;100320.75;4868757;28;120780;-86
2021/10/15 06:19:56;;;;;;;12.57;1.88;;;;;;;14.84;69.39;100316.34;4855163;28;119935;-86
2021/10/15 06:22:27;;;;;;;17.40;2.05;;;;;;;15.08;69.19;100344.44;4870400;28;119532;-85
2021/10/15 06:24:54;;;;;;;11.85;2.00;;;;;;;15.11;69.29;100362.78;4862462;28;120667;-87
2021/10/15 06:27:23;;;;;;;15.10;2.17;;;;;;;15.05;69.28;100359.22;4839719;28;119832;-85
2021/10/15 06:29:49;;;;;;;10.20;2.13;;;;;;;15.03;69.50;100342.38;4855390;28;121806;-86
2021/10/15 06:32:20;;;;;;;10.20;1.77;;;;;;;15.02;69.06;100330.59;4870602;28;119779;-86
2021/10/15 06:34:46;;;;;;;11.30;1.90;;;;;;;15.11;69.01;100339.94;4852801;28;119618;-86
2021/10/15 06:37:12;;;;;;;21.25;1.75;;;;;;;15.10;68.52;100341.94;4859435;28;120605;-86
2021/10/15 06:39:38;;;;;;;14.75;2.17;;;;;;;15.16;68.83;100370.38;4872281;28;120062;-86
2021/10/15 06:42:04;;;;;;;17.63;2.28;;;;;;;15.16;68.51;100372.38;4874331;28;119732;-87
2021/10/15 06:44:30;;;;;;;15.93;1.88;;;;;;;15.14;68.88;100377.63;4868799;28;119610;-86
2021/10/15 06:46:56;;;;;;;12.80;1.88;;;;;;;15.11;68.75;100373.84;4872142;28;120331;-86
2021/10/15 06:49:21;;;;;;;14.73;2.17;;;;;;;15.12;69.20;100380.88;4870672;28;119411;-86
2021/10/15 06:51:47;;;;;;;13.43;2.35;;;;;;;15.22;69.16;100401.56;4870190;28;120235;-86
2021/10/15 06:54:13;;;;;;;27.05;2.50;;;;;;;15.12;68.52;100380.88;4873134;28;119867;-86
2021/10/15 06:56:41;;;;;;;16.13;2.30;;;;;;;15.21;68.70;100391.00;4872031;28;119708;-86
2021/10/15 06:59:07;;;;;;;11.05;2.20;;;;;;;15.09;68.88;100364.53;4858785;28;123301;-86
2021/10/15 07:01:33;;;;;;;19.60;2.25;;;;;;;15.28;68.81;100388.56;4872269;28;119423;-86
2021/10/15 07:04:00;;;;;;;17.88;2.60;;;;;;;15.21;68.86;100394.53;4866121;28;120039;-87
2021/10/15 07:06:26;;;;;;;14.93;2.33;;;;;;;15.09;68.48;100381.09;4840448;28;120442;-86
2021/10/15 07:08:52;;;;;;;14.23;2.13;;;;;;;15.05;68.19;100370.28;4866978;28;123069;-87
2021/10/15 07:11:17;;;;;;;18.35;2.40;;;;;;;14.97;68.01;100378.25;4853064;28;121909;-87
2021/10/15 07:13:43;;;;;;;16.77;2.47;;;;;;;15.22;67.98;100415.38;4850672;28;119732;-87
2021/10/15 07:16:12;;;;;;;20.58;2.47;;;;;;;15.21;67.48;100405.59;4872236;28;121279;-87
2021/10/15 07:18:38;;;;;;;22.85;2.80;;;;;;;15.17;67.71;100418.88;4873202;28;119496;-88
2021/10/15 07:21:05;;;;;;;20.75;3.20;;;;;;;15.16;67.92;100422.13;4862406;28;119770;-88
2021/10/15 07:23:31;;;;;;;20.25;2.97;;;;;;;15.12;67.84;100441.66;4856945;28;121719;-90
2021/10/15 07:25:58;;;;;;;17.83;2.53;;;;;;;14.91;67.16;100429.16;4873976;28;119626;-88
2021/10/15 07:28:24;;;;;;;17.45;2.90;;;;;;;14.93;67.39;100441.22;4873405;28;120046;-88
2021/10/15 07:30:50;;;;;;;19.70;2.58;;;;;;;14.92;67.38;100447.25;4873962;28;122217;-89
2021/10/15 07:33:16;;;;;;;20.92;3.10;;;;;;;14.80;67.49;100445.59;4855622;28;119726;-86
2021/10/15 07:35:41;;;;;;;22.20;3.00;;;;;;;14.98;67.68;100472.91;4869511;28;121062;-85
2021/10/15 07:38:10;;;;;;;18.88;2.90;;;;;;;14.78;67.54;100456.34;4868371;28;120441;-86
2021/10/15 07:40:52;;;;;;;21.45;3.25;;;;;;;14.55;67.47;100428.47;4856425;28;119646;-86
2021/10/15 07:43:18;;;;;;;21.52;2.90;;;;;;;14.84;67.70;100476.50;4852880;28;121699;-85
2021/10/15 07:45:43;;;;;;;23.15;2.83;;;;;;;14.71;67.46;100454.78;4869404;28;119750;-86
2021/10/15 07:48:09;;;;;;;18.55;2.72;;;;;;;14.72;67.59;100473.63;4853161;28;120287;-86
2021/10/15 07:50:35;;;;;;;20.48;2.90;;;;;;;14.87;67.26;100506.66;4849395;28;120591;-86
2021/10/15 07:53:01;;;;;;;20.05;3.58;;;;;;;14.64;67.49;100480.03;4834238;28;119982;-86
2021/10/15 07:55:27;;;;;;;23.55;3.38;;;;;;;14.40;67.71;100447.81;4869101;28;120006;-85
2021/10/15 07:57:53;;;;;;;16.23;2.75;;;;;;;14.83;67.79;100508.88;4850996;28;120353;-87
2021/10/15 08:00:19;;;;;;;22.52;3.30;;;;;;;14.74;68.10;100504.25;4851894;28;120223;-87
2021/10/15 08:02:46;;;;;;;21.17;2.90;;;;;;;14.76;68.03;100514.06;4871977;28;119852;-87
2021/10/15 08:05:16;;;;;;;28.77;3.97;;;;;;;14.79;67.94;100524.13;4851992;28;119921;-87
2021/10/15 08:07:42;;;;;;;22.55;2.88;;;;;;;14.94;68.21;100541.41;4851712;28;122024;-87
2021/10/15 08:10:27;;;;;;;25.95;3.40;;;;;;;14.83;68.21;100524.69;4853683;28;119453;-86
2021/10/15 08:12:52;;;;;;;19.38;3.10;;;;;;;14.84;67.63;100526.19;4849131;28;119822;-87
2021/10/15 08:15:18;;;;;;;21.95;3.45;;;;;;;14.96;67.92;100549.97;4867112;28;119381;-86
2021/10/15 08:17:45;;;;;;;18.75;3.30;;;;;;;14.74;67.95;100515.31;4868625;28;119680;-86
2021/10/15 08:20:16;;;;;;;20.00;2.58;;;;;;;14.92;68.16;100541.13;4851064;28;119623;-87
2021/10/15 08:22:41;;;;;;;26.27;3.67;;;;;;;15.04;68.23;100565.63;4836114;28;121555;-86
2021/10/15 08:25:08;;;;;;;23.98;3.03;;;;;;;15.08;67.87;100561.88;4870068;28;122094;-86
2021/10/15 08:27:34;;;;;;;21.95;3.33;;;;;;;15.06;67.43;100556.84;4865480;28;120089;-87
2021/10/15 08:30:01;;;;;;;23.67;3.40;;;;;;;15.16;67.54;100569.28;4867075;28;120489;-87
2021/10/15 08:32:27;;;;;;;21.27;3.03;;;;;;;14.95;67.03;100529.88;4867714;28;119769;-87
2021/10/15 08:34:53;;;;;;;22.55;3.28;;;;;;;15.13;67.46;100541.84;4853532;28;119978;-86
2021/10/15 08:37:19;;;;;;;23.35;3.38;;;;;;;15.33;67.50;100561.94;4866978;28;120657;-86
2021/10/15 08:39:44;;;;;;;20.50;2.88;;;;;;;15.19;67.35;100528.88;4847708;28;120515;-86
2021/10/15 08:42:10;;;;;;;22.00;2.97;;;;;;;15.52;67.75;100575.44;4851244;28;122312;-87
2021/10/15 08:44:44;;;;;;;20.48;2.85;;;;;;;15.63;68.17;100576.38;4850267;28;120491;-86
2021/10/15 08:47:11;;;;;;;;;;;;;;;15.71;67.48;100590.50;4873525;28;119491;-86
2021/10/15 08:49:37;;;;;;;18.05;2.45;;;;;;;15.49;66.96;100557.09;4852351;28;122113;-86
2021/10/15 08:52:03;;;;;;;16.63;2.83;;;;;;;15.73;66.26;100599.06;4849439;28;119963;-87
2021/10/15 08:54:32;;;;;;;19.50;2.80;;;;;;;15.66;66.30;100585.69;4835776;28;120277;-87
2021/10/15 08:57:00;;;;;;;12.88;2.30;;;;;;;15.65;65.89;100595.22;4852703;28;119894;-87
2021/10/15 08:59:46;;;;;;;14.02;2.40;;;;;;;15.59;66.19;100594.41;4868265;28;119899;-87
2021/10/15 09:02:18;;;;;;;16.35;2.70;;;;;;;15.54;66.58;100589.53;4865026;28;118992;-88
2021/10/15 09:04:53;;;;;;;20.42;2.67;;;;;;;15.51;66.47;100599.56;4827068;28;120895;-85
2021/10/15 09:07:22;;;;;;;15.27;2.85;;;;;;;15.53;66.54;100602.59;4851654;28;119461;-85
2021/10/15 09:09:50;;;;;;;16.25;3.05;;;;;;;15.46;66.71;100588.47;4869517;28;119981;-85
2021/10/15 09:12:18;;;;;;;18.38;2.92;;;;;;;15.57;67.07;100618.97;4851886;28;119685;-86
2021/10/15 09:14:47;;;;;;;17.52;2.53;;;;;;;15.30;66.73;100570.44;4853420;28;121131;-85
2021/10/15 09:17:18;;;;;;;21.35;3.03;;;;;;;15.64;66.94;100616.59;4834206;28;120018;-85
2021/10/15 09:19:46;;;;;;;18.27;2.80;;;;;;;15.68;66.79;100608.09;4862153;28;119726;-86
2021/10/15 09:22:35;;;;;;;24.13;3.10;;;;;;;15.72;66.73;100616.16;4877074;28;119573;-87
2021/10/15 09:25:16;;;;;;;24.80;2.97;;;;;;;15.68;66.84;100601.78;4836265;28;123105;-86
2021/10/15 09:27:45;;;;;;;23.20;3.45;;;;;;;15.81;66.66;100622.28;4866336;28;119608;-89
2021/10/15 09:30:27;;;;;;;19.67;3.05;;;;;;;15.83;66.42;100624.56;4853923;28;119961;-88
2021/10/15 09:33:02;;;;;;;14.90;2.92;;;;;;;15.39;66.36;100564.03;4842646;28;120654;-89
2021/10/15 09:35:30;;;;;;;20.73;2.92;;;;;;;15.87;66.36;100633.41;4869958;28;119810;-88
2021/10/15 09:38:01;;;;;;;20.50;2.90;;;;;;;15.86;66.07;100632.66;4835907;28;122057;-87
2021/10/15 09:40:31;;;;;;;23.58;2.90;;;;;;;15.60;66.44;100590.38;4853137;28;120201;-88
2021/10/15 09:43:00;;;;;;;18.10;3.10;;;;;;;15.64;66.11;100596.47;4866618;28;119714;-87
2021/10/15 09:45:31;;;;;;;15.15;3.58;;;;;;;15.81;66.25;100619.50;4851921;28;120032;-87
2021/10/15 09:47:59;;;;;;;14.93;3.75;;;;;;;15.75;65.91;100609.66;4865645;28;119734;-88
2021/10/15 09:50:30;;;;;;;17.30;3.05;;;;;;;15.70;65.55;100597.28;4867971;28;120902;-88
2021/10/15 09:52:57;;;;;;;19.30;2.80;;;;;;;16.00;65.67;100646.84;4837804;28;119407;-87
2021/10/15 09:55:31;;;;;;;24.10;3.17;;;;;;;15.98;64.93;100641.06;4869226;28;119975;-88
2021/10/15 09:58:23;;;;;;;24.45;3.50;;;;;;;15.71;64.55;100612.63;4868914;28;120044;-86
2021/10/15 10:00:52;;;;;;;16.40;3.10;;;;;;;16.05;65.03;100663.50;4841470;28;119906;-88
2021/10/15 10:03:20;;;;;;;18.98;3.17;;;;;;;16.04;65.29;100667.53;4851313;28;120567;-87
2021/10/15 10:05:46;;;;;;;20.15;3.78;;;;;;;15.96;65.06;100658.91;4868101;28;123696;-88
2021/10/15 10:08:12;;;;;;;20.48;3.45;;;;;;;16.07;64.66;100671.31;4873211;28;119512;-88
2021/10/15 10:10:40;;;;;;;24.05;3.63;;;;;;;16.12;64.50;100679.69;4852137;28;119803;-87
2021/10/15 10:13:08;;;;;;;27.52;3.38;;;;;;;16.15;64.47;100675.19;4846454;28;121844;-87
2021/10/15 10:15:38;;;;;;;19.63;3.13;;;;;;;16.19;64.84;100679.25;4871988;28;120190;-87
2021/10/15 10:21:08;;;;;;;22.08;2.85;;;;;;;16.20;64.19;100657.88;4854120;28;119704;-89
2021/10/15 10:23:40;;;;;;;21.35;2.90;;;;;;;16.40;63.96;100688.25;4870147;28;119943;-86
2021/10/15 10:26:10;;;;;;;18.77;2.95;;;;;;;16.54;63.25;100692.88;4866167;28;122095;-85
2021/10/15 10:28:36;;;;;;;15.25;3.05;;;;;;;16.63;61.95;100691.19;4835561;28;119678;-88
2021/10/15 10:31:05;;;;;;;24.35;3.50;;;;;;;16.64;61.20;100676.09;4853928;28;120940;-87
2021/10/15 10:33:52;;;;;;;22.65;2.83;;;;;;;16.74;61.44;100692.06;4865823;28;122056;-87
2021/10/15 10:36:18;;;;;;;15.80;2.80;;;;;;;16.73;59.98;100692.53;4869483;28;119528;-86
2021/10/15 10:38:44;;;;;;;22.33;3.25;;;;;;;16.68;59.65;100693.28;4856125;28;122596;-86
2021/10/15 10:41:12;;;;;;;19.75;2.83;;;;;;;16.72;60.21;100707.66;4840112;28;119640;-85
2021/10/15 10:43:45;;;;;;;15.00;2.67;;;;;;;16.69;60.06;100700.31;4870027;28;119797;-85
2021/10/15 10:46:16;;;;;;;17.02;3.63;;;;;;;16.69;58.92;100692.78;4844013;28;121346;-86
2021/10/15 10:48:48;;;;;;;10.23;2.20;;;;;;;16.71;59.57;100700.59;4847828;28;119557;-88
2021/10/15 10:51:25;;;;;;;19.30;2.72;;;;;;;16.74;59.66;100713.44;4837880;28;121306;-84
2021/10/15 10:54:04;;;;;;;16.38;2.80;;;;;;;16.73;59.38;100704.38;4851882;28;122277;-85
2021/10/15 10:56:39;;;;;;;15.77;3.15;;;;;;;16.73;59.41;100717.47;4845241;28;119653;-85
2021/10/15 10:59:20;;;;;;;21.98;2.90;;;;;;;16.74;59.47;100710.69;4849060;28;122854;-85
2021/10/15 11:01:53;;;;;;;21.15;3.10;;;;;;;16.74;60.64;100716.97;4875840;28;122158;-88
2021/10/15 11:04:36;;;;;;;13.75;2.70;;;;;;;16.71;59.59;100720.75;4844711;28;121172;-88
2021/10/15 11:07:04;;;;;;;15.48;3.42;;;;;;;16.72;59.55;100724.25;4850864;28;123827;-87
2021/10/15 11:09:49;;;;;;;15.65;2.58;;;;;;;16.70;60.59;100733.06;4836405;28;120414;-88
2021/10/15 11:12:27;;;;;;;15.85;2.50;;;;;;;16.68;59.88;100729.28;4842400;28;119996;-87
2021/10/15 11:14:56;;;;;;;19.55;3.05;;;;;;;16.68;59.98;100730.03;4851071;28;122359;-88
2021/10/15 11:17:36;;;;;;;15.30;3.28;;;;;;;16.64;58.72;100723.94;4867541;28;120229;-88
2021/10/15 11:20:11;;;;;;;15.40;2.72;;;;;;;16.69;59.10;100733.56;4840194;28;120999;-85
2021/10/15 11:22:39;;;;;;;18.63;2.75;;;;;;;16.69;58.41;100744.63;4849822;28;123197;-85
2021/10/15 11:25:12;;;;;;;16.13;2.67;;;;;;;16.61;58.47;100729.69;4856139;28;119673;-87